Latest Coastal Weather Observations for Geraldton Airport

IDW60701

Issued at 12:35 pm WST Thursday 21 August 2014 (issued every 10 minutes, with the page automatically refreshed every 10 minutes)

About coastal observations | Map of coastal stations | Coastal observations for WA | Marine services | Other Formats
Station Details ID: 008315 Name: GERALDTON AIRPORT Lat: -28.80 Lon: 114.70 Height: 29.7 m
Data from the previous 72 hours. | See also: Recent months at Geraldton Airport
Date/Time
WST
Temp

°C
Wind Pressure Rain
since 9am
mm
Weather Cloud Vis
km
Sea
Height
m
Swell
Dir
 
Speed
knots
Gust
knots
hPa Trend Height
m
Period
s
Dir
21/12:30pm 21.5 WSW 13 17 1014.5 - 0.0 - Mostly clear 10 - - - -
21/12:00pm 20.9 WSW 13 16 1014.8 R 0.0 Distant precip. Partly cloudy 20 - - - -
21/11:30am 20.5 WSW 12 17 1014.8 - 0.0 Showers Mostly clear 10 - - - -
21/11:00am 21.3 W 10 14 1014.9 - 0.0 - Partly cloudy 10 - - - -
21/10:30am 20.7 WSW 9 12 1014.8 - 0.0 - Partly cloudy 10 - - - -
21/10:00am 19.7 WSW 5 7 1014.8 - 0.0 - Mostly clear 10 - - - -
21/09:30am 18.6 W 6 8 1014.8 - 0.0 - Mostly clear 10 - - - -
21/09:18am 18.2 W 8 10 1014.8 - 0.0 - Mostly clear 10 - - - -
21/09:00am 18.0 W 13 15 1014.7 R 10.0 Showers Mostly cloudy 20 - - - -
21/08:53am 18.5 WSW 9 14 1014.6 - 9.4 Showers Mostly clear 3 - - - -
21/08:30am 18.6 WSW 11 18 1014.1 - 9.0 - Mostly clear 6 - - - -
21/08:00am 18.1 W 7 9 1013.8 - 9.0 - Mostly clear 6 - - - -
21/07:35am 17.1 NNW 14 16 1013.4 - 5.6 Showers Mostly clear 2 - - - -
21/07:30am 16.5 WNW 9 14 1013.4 - 5.4 Showers Partly cloudy 5 - - - -
21/07:00am 16.7 N 14 18 1012.7 - 3.0 Showers Partly cloudy 4 - - - -
21/06:39am 16.8 N 12 16 1012.6 - 1.4 Showers Partly cloudy 4 - - - -
21/06:30am 16.7 N 13 18 1012.5 - 1.2 Showers Partly cloudy 10 - - - -
21/06:00am 17.0 NNW 12 17 1012.4 F 1.2 Showers Mostly cloudy 15 - - - -
21/05:51am 17.6 N 10 15 1012.4 - 0.2 Showers Mostly clear 5 - - - -
21/05:30am 16.4 N 8 10 1012.0 - 0.0 - Partly cloudy 10 - - - -
21/05:00am 16.2 N 10 13 1011.8 - 0.0 - Partly cloudy 10 - - - -
21/04:30am 15.7 N 10 13 1011.8 - 0.0 - Partly cloudy 10 - - - -
21/04:00am 15.4 N 9 11 1012.0 - 0.0 - Partly cloudy 10 - - - -
21/03:30am 15.6 NNE 10 12 1012.2 - 0.0 - Partly cloudy 10 - - - -
21/03:00am 15.3 NNE 9 12 1012.5 - 0.0 - Cloudy 10 - - - -
21/02:30am 15.9 NNE 9 13 1012.8 - 0.0 - Partly cloudy 10 - - - -
21/02:00am 15.5 NNE 8 11 1013.3 - 0.0 - Partly cloudy 10 - - - -
21/01:30am 15.6 NNE 7 9 1013.9 - 0.0 - Partly cloudy 10 - - - -
21/01:00am 15.5 NNE 8 11 1014.1 - 0.0 - Cloudy 10 - - - -
21/12:30am 15.4 NNE 6 8 1014.3 - 0.0 - Partly cloudy 10 - - - -
21/12:00am 16.6 N 9 10 1014.5 - 0.0 - Cloudy 10 - - - -
 
Date/Time
WST
Temp

°C
Wind Pressure Rain
since 9am
mm
Weather Cloud Vis
km
Sea
Height
m
Swell
Dir
 
Speed
knots
Gust
knots
hPa Trend Height
m
Period
s
Dir
20/11:30pm 16.1 N 6 7 1015.0 - 0.0 - Partly cloudy 10 - - - -
20/11:00pm 15.6 NNE 6 8 1015.2 - 0.0 - Cloudy 10 - - - -
20/10:30pm 15.7 N 8 10 1015.5 - 0.0 - Partly cloudy 10 - - - -
20/10:00pm 15.8 N 8 10 1015.5 - 0.0 - - 10 - - - -
20/09:30pm 16.0 N 7 8 1015.7 - 0.0 - Partly cloudy 10 - - - -
20/09:00pm 15.5 NNE 6 7 1015.8 F 0.0 Fine Mostly cloudy 30 - - - -
20/08:30pm 15.5 N 6 7 1015.9 - 0.0 - - 10 - - - -
20/08:00pm 16.6 N 5 7 1015.6 - 0.0 - - 10 - - - -
20/07:30pm 18.1 NW 7 11 1015.6 - 0.0 - - 10 - - - -
20/07:00pm 18.1 NW 9 11 1015.5 - 0.0 - - 10 - - - -
20/06:30pm 18.0 NNW 7 11 1015.4 - 0.0 - Mostly clear 10 - - - -
20/06:00pm 18.5 NW 10 13 1015.2 F 0.0 Fine Mostly cloudy 40 - - - -
20/05:30pm 18.9 NW 12 17 1015.4 - 0.0 - Mostly clear 10 - - - -
20/05:00pm 19.2 NW 14 19 1015.3 - 0.0 - Mostly clear 10 - - - -
20/04:30pm 20.0 WNW 15 19 1015.3 - 0.0 - Mostly clear 10 - - - -
20/04:00pm 20.0 NW 15 19 1015.1 - 0.0 - - 10 - - - -
20/03:30pm 20.8 NW 13 16 1014.8 - 0.0 - - 10 - - - -
20/03:00pm 21.1 NW 11 16 1015.0 F 0.0 Fine Mostly clear 40 - - - -
20/02:30pm 21.1 NW 11 16 1015.2 - 0.0 - Partly cloudy 10 - - - -
20/02:00pm 21.5 NW 11 16 1015.5 - 0.0 - Mostly clear 10 - - - -
20/01:30pm 21.4 WNW 12 15 1015.7 - 0.0 - Mostly clear 10 - - - -
20/01:00pm 21.1 NNW 12 15 1016.1 - 0.0 - Mostly clear 10 - - - -
20/12:30pm 20.9 NW 13 17 1016.6 - 0.0 - Mostly clear 10 - - - -
20/12:00pm 21.0 NNW 12 17 1016.9 F 0.0 Distant precip. Partly cloudy 40 - - - -
20/11:30am 21.1 N 11 16 1017.2 - 0.0 - Partly cloudy 10 - - - -
20/11:00am 19.2 NNW 9 12 1017.5 - 0.0 - Mostly clear 10 - - - -
20/10:30am 18.8 NNE 9 13 1017.6 - 0.0 - Partly cloudy 10 - - - -
20/10:00am 17.3 NNE 12 15 1017.7 - 0.0 - Mostly clear 10 - - - -
20/09:30am 15.3 NNE 12 15 1017.8 - 0.0 - Mostly clear 10 - - - -
20/09:00am 14.2 NNE 11 15 1018.0 F 0.6 Distant precip. Mostly cloudy 40 - - - -
20/08:30am 12.3 NNE 12 15 1017.6 - 0.6 - Mostly clear 10 - - - -
20/08:00am 11.6 NNE 11 14 1017.4 - 0.6 - Mostly clear 10 - - - -
20/07:30am 10.5 NNE 8 11 1017.1 - 0.6 - Mostly clear 10 - - - -
20/07:00am 9.7 NNE 10 12 1016.7 - 0.6 - Mostly clear 10 - - - -
20/06:30am 9.7 NNE 10 13 1016.4 - 0.6 - Mostly clear 10 - - - -
20/06:00am 9.9 NE 9 11 1016.7 F 0.4 Fine Mostly clear 40 - - - -
20/05:30am 9.9 NNE 9 11 1016.7 - 0.4 - - 10 - - - -
20/05:00am 10.1 NNE 9 10 1016.7 - 0.4 - - 10 - - - -
20/04:30am 10.6 NNE 8 10 1016.7 - 0.4 - Partly cloudy 10 - - - -
20/04:00am 11.3 NNE 7 7 1016.9 - 0.4 - Cloudy 10 - - - -
20/03:34am 11.6 NE 4 7 1017.1 - 0.4 - Partly cloudy 10 - - - -
20/03:30am 11.8 NNE 4 6 1017.2 - 0.4 - Partly cloudy 10 - - - -
20/03:16am 12.1 N 6 8 1017.5 - 0.4 - Partly cloudy 8 - - - -
20/03:00am 11.7 NNE 7 9 1017.5 - 0.2 - Cloudy 10 - - - -
20/02:30am 11.0 NNE 6 7 1018.0 - 0.2 - Partly cloudy 10 - - - -
20/02:00am 11.5 NNE 6 6 1018.0 - 0.2 - Partly cloudy 10 - - - -
20/01:30am 12.0 NNE 6 7 1017.9 - 0.2 - Partly cloudy 10 - - - -
20/01:00am 12.3 NNE 6 7 1018.3 - 0.2 - Partly cloudy 10 - - - -
20/12:30am 12.5 NNE 4 5 1018.4 - 0.2 - Partly cloudy 10 - - - -
20/12:00am 12.5 NE 4 5 1018.6 - 0.2 - Cloudy 10 - - - -
 
Date/Time
WST
Temp

°C
Wind Pressure Rain
since 9am
mm
Weather Cloud Vis
km
Sea
Height
m
Swell
Dir
 
Speed
knots
Gust
knots
hPa Trend Height
m
Period
s
Dir
19/11:30pm 12.8 NNE 7 8 1018.7 - 0.2 - Partly cloudy 10 - - - -
19/11:00pm 13.1 NNE 7 8 1018.8 - 0.2 - Partly cloudy 10 - - - -
19/10:30pm 13.0 NNE 6 8 1019.0 - 0.2 - Partly cloudy 10 - - - -
19/10:00pm 13.4 NNW 3 4 1019.1 - 0.2 - Partly cloudy 10 - - - -
19/09:30pm 14.1 W 1 3 1019.2 - 0.2 - Partly cloudy 10 - - - -
19/09:00pm 14.3 WNW 4 6 1019.5 R 0.2 Fine Partly cloudy 30 - - - -
19/08:30pm 14.1 WNW 5 6 1019.2 - 0.2 - Mostly clear 10 - - - -
19/08:00pm 16.2 WNW 5 6 1019.1 - 0.2 - Mostly clear 10 - - - -
19/07:30pm 16.3 W 6 7 1018.8 - 0.2 - Partly cloudy 10 - - - -
19/07:00pm 16.5 W 3 5 1018.5 - 0.2 - Partly cloudy 10 - - - -
19/06:30pm 16.8 WSW 5 7 1018.4 - 0.2 - Partly cloudy 10 - - - -
19/06:00pm 17.2 WSW 7 8 1018.1 F 0.2 Distant precip. Mostly cloudy 30 - - - -
19/05:30pm 18.3 WSW 8 11 1017.7 - 0.2 - Partly cloudy 10 - - - -
19/05:00pm 19.0 WSW 11 15 1017.7 - 0.2 - Partly cloudy 10 - - - -
19/04:30pm 18.2 WSW 9 12 1017.7 - 0.2 - Partly cloudy 10 - - - -
19/04:00pm 19.2 SW 9 16 1017.7 - 0.2 - Mostly cloudy 10 - - - -
19/03:30pm 20.6 W 11 14 1017.8 - 0.2 - Mostly cloudy 10 - - - -
19/03:00pm 20.3 W 11 17 1018.1 R 0.2 Distant precip. Mostly cloudy 30 - - - -
19/02:30pm 19.8 WSW 12 17 1018.1 - 0.2 - Mostly cloudy 10 - - - -
19/02:00pm 19.5 WSW 13 16 1018.1 - 0.2 - Mostly cloudy 10 - - - -
19/01:30pm 19.9 W 12 16 1018.4 - 0.0 - Mostly clear 10 - - - -
19/01:00pm 20.2 WSW 11 15 1018.7 - 0.0 - Mostly clear 10 - - - -
19/12:30pm 19.3 WSW 11 14 1019.3 - 0.0 - Mostly clear 10 - - - -
19/12:00pm 20.4 WSW 15 20 1019.5 F 0.0 Distant precip. Mostly cloudy 30 - - - -
19/11:30am 19.0 SW 13 16 1019.4 - 0.0 - Mostly clear 10 - - - -
19/11:00am 19.3 SW 10 15 1019.7 - 0.0 - Mostly clear 10 - - - -
19/10:30am 18.5 SSW 15 18 1019.8 - 0.0 Showers Mostly clear 10 - - - -
19/10:00am 19.7 WSW 12 15 1020.0 - 0.0 - Mostly clear 10 - - - -
19/09:30am 19.1 WSW 11 15 1020.1 - 0.0 - Mostly clear 10 - - - -
19/09:00am 17.8 WSW 9 15 1020.2 S 1.0 Showers Mostly cloudy 30 - - - -
19/08:30am 17.0 WSW 13 18 1020.0 - 1.0 Showers Mostly clear 10 - - - -
19/08:00am 17.0 WSW 7 10 1019.7 - 1.0 - Mostly clear 10 - - - -
19/07:30am 16.0 WSW 8 10 1019.4 - 1.0 - Mostly clear 10 - - - -
19/07:00am 15.8 WSW 8 9 1019.2 - 1.0 - Mostly clear 10 - - - -
19/06:30am 14.9 WSW 7 8 1018.9 - 1.0 - Partly cloudy 10 - - - -
19/06:00am 15.6 WSW 6 7 1018.9 F 1.0 Distant precip. Partly cloudy 30 - - - -
19/05:30am 16.1 WSW 12 17 1018.7 - 1.0 - Partly cloudy 10 - - - -
19/05:00am 15.9 W 9 11 1018.6 - 1.0 - Partly cloudy 10 - - - -
19/04:30am 16.5 WSW 10 13 1018.6 - 1.0 - Partly cloudy 10 - - - -
19/04:00am 16.0 WSW 10 13 1018.7 - 1.0 - Partly cloudy 10 - - - -
19/03:30am 15.5 WSW 8 10 1018.8 - 1.0 - - 10 - - - -
19/03:00am 15.9 WSW 9 11 1018.9 - 1.0 - Cloudy 10 - - - -
19/02:30am 15.3 WSW 9 11 1019.0 - 1.0 - - 10 - - - -
19/02:00am 15.4 WSW 9 11 1019.0 - 1.0 - Partly cloudy 10 - - - -
19/01:30am 15.5 WSW 9 11 1019.3 - 1.0 - Partly cloudy 10 - - - -
19/01:00am 16.0 W 6 8 1019.5 - 1.0 - Partly cloudy 10 - - - -
19/12:30am 15.9 WSW 5 7 1019.6 - 1.0 - Partly cloudy 10 - - - -
19/12:00am 15.1 WSW 6 8 1019.9 - 0.8 - Cloudy 10 - - - -
 
Date/Time
WST
Temp

°C
Wind Pressure Rain
since 9am
mm
Weather Cloud Vis
km
Sea
Height
m
Swell
Dir
 
Speed
knots
Gust
knots
hPa Trend Height
m
Period
s
Dir
18/11:30pm 15.5 WSW 6 8 1019.8 - 0.8 - Partly cloudy 10 - - - -
18/11:00pm 15.8 W 7 8 1020.1 - 0.8 - Partly cloudy 10 - - - -
18/10:30pm 16.2 W 8 12 1020.2 - 0.8 - Partly cloudy 10 - - - -
18/10:00pm 16.0 W 8 9 1020.3 - 0.8 - Partly cloudy 10 - - - -
18/09:30pm 15.7 W 7 8 1020.2 - 0.8 - Partly cloudy 10 - - - -
18/09:00pm 15.7 W 7 11 1020.2 R 0.8 Fine Partly cloudy 30 - - - -
18/08:30pm 15.5 W 7 8 1020.1 - 0.8 - Mostly clear 10 - - - -
18/08:00pm 16.0 W 6 9 1019.8 - 0.8 - Partly cloudy 10 - - - -
18/07:30pm 16.1 W 7 9 1019.7 - 0.4 Showers Mostly cloudy 10 - - - -
18/07:00pm 16.0 W 7 10 1019.3 - 0.4 - Mostly clear 10 - - - -
18/06:30pm 16.8 W 8 10 1019.0 - 0.4 - Mostly clear 10 - - - -
18/06:00pm 17.2 W 9 12 1018.9 S 0.4 Distant precip. Mostly clear 30 - - - -
18/05:30pm 18.2 W 12 16 1018.5 - 0.4 - Partly cloudy 10 - - - -
18/05:00pm 18.7 W 13 16 1018.1 - 0.4 - Partly cloudy 10 - - - -
18/04:30pm 19.2 WSW 14 18 1018.2 - 0.4 - Partly cloudy 10 - - - -
18/04:00pm 19.9 W 15 20 1018.1 - 0.4 - Partly cloudy 10 - - - -
18/03:30pm 19.4 W 14 17 1018.1 - 0.4 - Mostly cloudy 10 - - - -
18/03:00pm 20.2 W 14 18 1018.2 R 0.4 Distant precip. Mostly cloudy 30 - - - -
18/02:30pm 19.8 W 14 17 1018.1 - 0.4 - Partly cloudy 10 - - - -
18/02:00pm 19.9 W 13 18 1018.2 - 0.4 - Partly cloudy 10 - - - -
18/01:30pm 17.4 W 17 23 1018.6 - 0.4 Showers Mostly clear 10 - - - -
18/01:00pm 19.5 W 13 18 1018.6 - 0.0 Showers Mostly cloudy 10 - - - -

Other Formats:

Comma delimited format used in spreadsheet applications
http://www.bom.gov.au/fwo/IDW60701/IDW60701.94403.axf

JavaScript Object Notation format (JSON) in row-major order
http://www.bom.gov.au/fwo/IDW60701/IDW60701.94403.json